createdAt,value
2022-08-29T00:00:59.597Z,7.10
2022-08-29T00:03:27.143Z,6.70
2022-08-29T00:05:54.530Z,6.60
2022-08-29T00:08:21.782Z,6.82
2022-08-29T00:10:49.388Z,7.10
2022-08-29T00:13:16.571Z,6.47
2022-08-29T00:15:45.135Z,8.02
2022-08-29T00:18:13.548Z,7.25
2022-08-29T00:20:40.861Z,7.30
2022-08-29T00:23:08.141Z,7.10
2022-08-29T00:25:35.318Z,6.78
2022-08-29T00:28:02.574Z,7.05
2022-08-29T00:30:30.074Z,7.50
2022-08-29T00:32:57.223Z,6.95
2022-08-29T00:35:30.038Z,6.85
2022-08-29T00:37:58.231Z,6.53
2022-08-29T00:40:27.219Z,6.90
2022-08-29T00:42:54.493Z,5.88
2022-08-29T00:45:22.062Z,5.85
2022-08-29T00:47:53.721Z,5.88
2022-08-29T00:50:25.125Z,6.60
2022-08-29T00:52:52.541Z,6.35
2022-08-29T00:55:22.522Z,6.13
2022-08-29T00:57:51.407Z,6.60
2022-08-29T01:00:18.629Z,6.28
2022-08-29T01:02:47.557Z,5.55
2022-08-29T01:05:16.200Z,5.88
2022-08-29T01:07:45.186Z,5.72
2022-08-29T01:10:32.395Z,6.43
2022-08-29T01:12:59.678Z,6.32
2022-08-29T01:15:27.514Z,6.25
2022-08-29T01:17:55.450Z,6.30
2022-08-29T01:20:28.337Z,6.22
2022-08-29T01:23:04.339Z,5.75
2022-08-29T01:25:33.441Z,5.80
2022-08-29T01:28:18.169Z,6.07
2022-08-29T01:30:58.753Z,5.82
2022-08-29T01:33:25.935Z,6.18
2022-08-29T01:35:53.150Z,5.35
2022-08-29T01:38:27.655Z,5.80
2022-08-29T01:40:58.912Z,6.20
2022-08-29T01:43:27.007Z,5.38
2022-08-29T01:45:54.638Z,5.20
2022-08-29T01:48:22.233Z,5.53
2022-08-29T01:50:49.662Z,5.20
2022-08-29T01:53:19.369Z,5.90
2022-08-29T01:55:46.493Z,5.63
2022-08-29T01:58:14.035Z,5.13
2022-08-29T02:00:41.575Z,5.32
2022-08-29T02:03:08.768Z,5.13
2022-08-29T02:05:36.668Z,5.35
2022-08-29T02:08:03.959Z,5.68
2022-08-29T02:10:31.565Z,5.50
2022-08-29T02:12:58.718Z,5.43
2022-08-29T02:15:25.883Z,5.50
2022-08-29T02:17:53.139Z,5.13
2022-08-29T02:20:20.317Z,5.07
2022-08-29T02:22:47.663Z,5.20
2022-08-29T02:25:33.505Z,5.13
2022-08-29T02:28:00.728Z,5.68
2022-08-29T02:30:27.966Z,4.70
2022-08-29T02:32:55.178Z,5.18
2022-08-29T02:35:22.921Z,4.95
2022-08-29T02:37:51.494Z,5.13
2022-08-29T02:40:18.716Z,4.82
2022-08-29T02:42:45.903Z,5.40
2022-08-29T02:45:13.082Z,5.20
2022-08-29T02:47:41.883Z,5.50
2022-08-29T02:50:10.881Z,5.28
2022-08-29T02:52:39.996Z,4.40
2022-08-29T02:55:07.792Z,4.88
2022-08-29T02:57:34.947Z,4.63
2022-08-29T03:00:02.827Z,4.85
2022-08-29T03:02:30.048Z,5.20
2022-08-29T03:04:59.947Z,5.00
2022-08-29T03:07:27.335Z,5.43
2022-08-29T03:09:54.483Z,5.22
2022-08-29T03:12:21.633Z,4.47
2022-08-29T03:14:48.756Z,5.07
2022-08-29T03:17:15.930Z,4.30
2022-08-29T03:19:43.106Z,5.00
2022-08-29T03:22:10.254Z,4.88
2022-08-29T03:24:37.811Z,4.88
2022-08-29T03:27:05.118Z,4.70
2022-08-29T03:29:32.724Z,5.22
2022-08-29T03:31:59.929Z,4.53
2022-08-29T03:34:28.119Z,5.10
2022-08-29T03:36:55.935Z,5.50
2022-08-29T03:39:23.076Z,5.03
2022-08-29T03:41:50.281Z,5.00
2022-08-29T03:44:17.403Z,5.05
2022-08-29T03:46:44.614Z,5.47
2022-08-29T03:49:15.560Z,4.93
2022-08-29T03:51:42.806Z,4.60
2022-08-29T03:54:10.210Z,4.90
2022-08-29T03:56:37.430Z,5.28
2022-08-29T03:59:04.598Z,4.90
2022-08-29T04:01:31.979Z,5.25
2022-08-29T04:03:59.219Z,5.32
2022-08-29T04:06:31.467Z,5.18
2022-08-29T04:08:59.126Z,4.78
2022-08-29T04:11:26.761Z,5.47
2022-08-29T04:13:54.049Z,4.97
2022-08-29T04:16:22.734Z,6.03
2022-08-29T04:18:50.247Z,5.10
2022-08-29T04:21:17.535Z,4.70
2022-08-29T04:23:46.123Z,4.93
2022-08-29T04:26:36.014Z,5.47
2022-08-29T04:29:04.634Z,5.90
2022-08-29T04:31:31.899Z,6.03
2022-08-29T04:33:59.132Z,5.88
2022-08-29T04:36:26.391Z,5.50
2022-08-29T04:38:54.950Z,5.20
2022-08-29T04:41:22.469Z,5.28
2022-08-29T04:43:49.745Z,4.97
2022-08-29T04:46:23.986Z,5.70
2022-08-29T04:48:52.045Z,5.97
2022-08-29T04:51:19.163Z,5.30
2022-08-29T04:53:46.696Z,5.50
2022-08-29T04:56:13.934Z,5.38
2022-08-29T04:58:43.556Z,5.60
2022-08-29T05:01:15.979Z,4.95
2022-08-29T05:03:43.246Z,5.27
2022-08-29T05:06:12.009Z,4.95
2022-08-29T05:08:39.999Z,5.05
2022-08-29T05:11:07.217Z,5.63
2022-08-29T05:13:34.487Z,5.28
2022-08-29T05:16:06.026Z,5.05
2022-08-29T05:18:33.446Z,5.07
2022-08-29T05:21:00.877Z,4.60
2022-08-29T05:23:28.010Z,4.38
2022-08-29T05:25:59.590Z,4.78
2022-08-29T05:28:27.481Z,4.95
2022-08-29T05:30:54.831Z,4.38
2022-08-29T05:33:22.042Z,4.55
2022-08-29T05:35:49.205Z,4.70
2022-08-29T05:38:16.849Z,4.47
2022-08-29T05:40:44.218Z,4.90
2022-08-29T05:43:11.663Z,4.70
2022-08-29T05:45:39.484Z,4.68
2022-08-29T05:48:07.914Z,4.80
2022-08-29T05:50:39.287Z,4.78
2022-08-29T05:53:06.473Z,5.10
2022-08-29T05:55:33.614Z,4.93
2022-08-29T05:58:00.785Z,4.88
2022-08-29T06:00:28.202Z,4.80
2022-08-29T06:02:55.582Z,4.90
2022-08-29T06:05:22.778Z,5.57
2022-08-29T06:07:49.951Z,5.25
2022-08-29T06:10:17.103Z,5.90
2022-08-29T06:12:44.263Z,5.18
2022-08-29T06:15:11.565Z,5.60
2022-08-29T06:17:38.782Z,5.47
2022-08-29T06:20:09.341Z,4.75
2022-08-29T06:22:40.083Z,5.45
2022-08-29T06:25:28.319Z,6.00
2022-08-29T06:27:55.779Z,6.20
2022-08-29T06:30:23.030Z,6.28
2022-08-29T06:32:50.202Z,6.40
2022-08-29T06:35:17.456Z,5.57
2022-08-29T06:37:44.565Z,6.18
2022-08-29T06:40:12.001Z,6.22
2022-08-29T06:42:39.173Z,5.78
2022-08-29T06:45:06.896Z,5.47
2022-08-29T06:47:34.443Z,6.18
2022-08-29T06:50:01.608Z,6.13
2022-08-29T06:52:28.793Z,6.07
2022-08-29T06:54:56.014Z,6.22
2022-08-29T06:57:23.199Z,5.82
2022-08-29T06:59:50.412Z,5.93
2022-08-29T07:02:17.612Z,5.65
2022-08-29T07:04:44.854Z,5.93
2022-08-29T07:07:12.362Z,5.55
2022-08-29T07:09:39.478Z,5.63
2022-08-29T07:12:06.695Z,5.50
2022-08-29T07:14:34.416Z,5.90
2022-08-29T07:17:01.661Z,5.60
2022-08-29T07:19:28.804Z,6.20
2022-08-29T07:21:58.426Z,5.40
2022-08-29T07:24:25.716Z,5.88
2022-08-29T07:26:52.927Z,5.10
2022-08-29T07:29:21.194Z,6.00
2022-08-29T07:31:48.793Z,5.60
2022-08-29T07:34:16.158Z,4.72
2022-08-29T07:36:43.646Z,4.88
2022-08-29T07:39:12.737Z,5.03
2022-08-29T07:41:40.508Z,5.07
2022-08-29T07:44:07.673Z,5.57
2022-08-29T07:46:34.949Z,4.75
2022-08-29T07:49:02.235Z,5.25
2022-08-29T07:51:29.528Z,6.00
2022-08-29T07:53:58.081Z,4.63
2022-08-29T07:56:34.444Z,5.30
2022-08-29T07:59:04.382Z,4.68
2022-08-29T08:01:31.647Z,4.93
2022-08-29T08:03:58.836Z,5.00
2022-08-29T08:06:27.305Z,5.05
2022-08-29T08:08:55.202Z,4.63
2022-08-29T08:11:23.652Z,5.30
2022-08-29T08:13:50.823Z,4.97
2022-08-29T08:16:18.906Z,5.68
2022-08-29T08:18:46.115Z,5.15
2022-08-29T08:21:13.802Z,5.22
2022-08-29T08:23:41.529Z,5.93
2022-08-29T08:26:09.646Z,5.10
2022-08-29T08:28:36.802Z,4.60
2022-08-29T08:31:06.579Z,5.15
2022-08-29T08:33:35.518Z,5.38
2022-08-29T08:36:03.465Z,4.88
2022-08-29T08:38:31.376Z,5.13
2022-08-29T08:41:05.471Z,4.85
2022-08-29T08:43:53.543Z,4.95
2022-08-29T08:46:25.904Z,4.57
2022-08-29T08:48:55.118Z,4.57
2022-08-29T08:51:24.591Z,4.40
2022-08-29T08:53:56.296Z,4.20
2022-08-29T08:56:28.597Z,4.13
2022-08-29T08:58:58.523Z,4.68
2022-08-29T09:01:28.831Z,4.60
2022-08-29T09:04:16.163Z,4.75
2022-08-29T09:06:51.436Z,4.78
2022-08-29T09:09:27.246Z,4.70
2022-08-29T09:12:12.586Z,4.10
2022-08-29T09:14:44.217Z,3.92
2022-08-29T09:17:15.610Z,3.78
2022-08-29T09:19:43.326Z,4.30
2022-08-29T09:22:15.307Z,3.92
2022-08-29T09:24:49.069Z,3.47
2022-08-29T09:27:21.085Z,3.65
2022-08-29T09:29:49.129Z,3.75
2022-08-29T09:32:21.752Z,3.80
2022-08-29T09:35:08.866Z,3.90
2022-08-29T09:37:36.779Z,4.30
2022-08-29T09:40:16.855Z,4.18
2022-08-29T09:42:52.603Z,4.00
2022-08-29T09:45:23.830Z,3.90
2022-08-29T09:47:51.781Z,5.15
2022-08-29T09:50:26.385Z,3.97
2022-08-29T09:52:58.715Z,3.92
2022-08-29T09:55:36.762Z,4.25
2022-08-29T09:58:03.900Z,3.55
2022-08-29T10:00:33.936Z,3.80
2022-08-29T10:03:02.222Z,4.63
2022-08-29T10:05:34.767Z,4.13
2022-08-29T10:08:03.296Z,4.40
2022-08-29T10:10:33.060Z,5.25
2022-08-29T10:13:03.633Z,3.60
2022-08-29T10:15:51.610Z,4.28
2022-08-29T10:18:28.614Z,3.85
2022-08-29T10:21:12.034Z,3.92
2022-08-29T10:23:44.957Z,4.20
2022-08-29T10:26:26.988Z,4.00
2022-08-29T10:29:04.018Z,4.03
2022-08-29T10:31:37.955Z,3.72
2022-08-29T10:34:14.198Z,4.20
2022-08-29T10:36:44.152Z,4.55
2022-08-29T10:39:16.081Z,3.55
2022-08-29T10:41:50.167Z,3.60
2022-08-29T10:47:02.026Z,3.80
2022-08-29T10:49:35.101Z,4.00
2022-08-29T10:52:17.270Z,3.70
2022-08-29T10:54:53.319Z,4.30
2022-08-29T10:57:35.902Z,3.70
2022-08-29T11:00:08.649Z,3.80
2022-08-29T11:02:39.412Z,3.80
2022-08-29T11:05:15.667Z,4.10
2022-08-29T11:07:47.034Z,3.90
2022-08-29T11:10:17.696Z,4.07
2022-08-29T11:12:47.924Z,3.78
2022-08-29T11:15:18.777Z,3.80
2022-08-29T11:17:48.435Z,3.95
2022-08-29T11:20:21.625Z,3.65
2022-08-29T11:22:51.899Z,3.97
2022-08-29T11:25:20.339Z,3.92
2022-08-29T11:27:57.821Z,3.95
2022-08-29T11:30:30.267Z,3.90
2022-08-29T11:33:00.687Z,4.15
2022-08-29T11:35:32.866Z,3.80
2022-08-29T11:38:06.118Z,4.25
2022-08-29T11:41:26.285Z,3.80
2022-08-29T11:43:31.025Z,3.90
2022-08-29T11:46:02.934Z,4.25
2022-08-29T11:48:43.503Z,4.47
2022-08-29T11:51:29.492Z,3.75
2022-08-29T11:53:57.269Z,3.53
2022-08-29T11:56:28.285Z,3.33
2022-08-29T11:58:56.761Z,3.88
2022-08-29T12:01:26.828Z,3.47
2022-08-29T12:03:55.331Z,3.67
2022-08-29T12:06:24.258Z,3.65
2022-08-29T12:09:04.785Z,3.58
2022-08-29T12:11:51.573Z,3.80
2022-08-29T12:14:32.225Z,3.95
2022-08-29T12:19:50.631Z,4.10
2022-08-29T12:22:36.546Z,4.57
2022-08-29T12:25:22.311Z,4.10
2022-08-29T12:28:06.622Z,4.43
2022-08-29T12:30:39.889Z,4.32
2022-08-29T12:33:25.946Z,4.20
2022-08-29T12:35:56.473Z,4.50
2022-08-29T12:38:58.838Z,4.25
2022-08-29T12:41:34.769Z,4.10
2022-08-29T12:44:04.002Z,4.13
2022-08-29T12:46:36.068Z,3.92
2022-08-29T12:49:09.353Z,3.75
2022-08-29T12:51:41.119Z,4.13
2022-08-29T12:54:09.025Z,3.60
2022-08-29T12:56:38.679Z,4.25
2022-08-29T12:59:05.952Z,4.30
2022-08-29T13:01:38.007Z,3.60
2022-08-29T13:04:13.181Z,3.50
2022-08-29T13:06:55.620Z,3.50
2022-08-29T13:09:26.691Z,3.47
2022-08-29T13:12:09.053Z,3.65
2022-08-29T13:14:47.249Z,3.72
2022-08-29T13:17:15.818Z,3.60
2022-08-29T13:20:03.006Z,3.50
2022-08-29T13:22:31.919Z,3.92
2022-08-29T13:25:03.511Z,3.67
2022-08-29T13:27:30.709Z,3.38
2022-08-29T13:30:01.660Z,3.65
2022-08-29T13:32:28.819Z,3.90
2022-08-29T13:35:00.653Z,3.53
2022-08-29T13:37:29.158Z,3.70
2022-08-29T13:39:56.346Z,3.80
2022-08-29T13:42:28.966Z,3.50
2022-08-29T13:47:25.347Z,3.35
2022-08-29T13:49:53.076Z,4.00
2022-08-29T13:52:20.370Z,4.07
2022-08-29T13:54:47.548Z,3.88
2022-08-29T13:57:18.217Z,3.53
2022-08-29T13:59:45.745Z,4.18
2022-08-29T14:02:14.763Z,3.58
2022-08-29T14:04:42.964Z,3.88
2022-08-29T14:07:12.385Z,3.72
2022-08-29T14:09:41.230Z,3.90
2022-08-29T14:12:08.829Z,3.67
2022-08-29T14:14:35.954Z,3.92
2022-08-29T14:17:03.210Z,3.88
2022-08-29T14:19:30.549Z,3.95
2022-08-29T14:22:00.779Z,3.92
2022-08-29T14:24:29.774Z,3.50
2022-08-29T14:27:01.408Z,3.50
2022-08-29T14:29:30.630Z,3.83
2022-08-29T14:31:58.166Z,3.67
2022-08-29T14:34:25.332Z,4.60
2022-08-29T14:39:26.335Z,4.32
2022-08-29T14:41:53.754Z,4.18
2022-08-29T14:44:21.867Z,4.35
2022-08-29T14:46:49.293Z,3.47
2022-08-29T14:49:16.474Z,4.10
2022-08-29T14:51:44.465Z,3.60
2022-08-29T14:54:12.123Z,3.35
2022-08-29T14:56:49.147Z,4.22
2022-08-29T14:59:17.442Z,4.18
2022-08-29T15:01:46.011Z,3.70
2022-08-29T15:04:15.965Z,4.10
2022-08-29T15:06:43.678Z,4.00
2022-08-29T15:09:11.079Z,3.88
2022-08-29T15:11:38.200Z,4.38
2022-08-29T15:14:07.923Z,3.80
2022-08-29T15:16:35.123Z,3.67
2022-08-29T15:21:50.484Z,4.00
2022-08-29T15:24:17.651Z,3.90
2022-08-29T15:26:45.076Z,3.90
2022-08-29T15:29:12.494Z,4.05
2022-08-29T15:31:40.198Z,3.67
2022-08-29T15:34:07.467Z,3.58
2022-08-29T15:36:35.744Z,3.35
2022-08-29T15:39:05.702Z,3.50
2022-08-29T15:41:33.177Z,3.95
2022-08-29T15:44:02.629Z,3.55
2022-08-29T15:46:29.984Z,3.95
2022-08-29T15:48:57.241Z,3.58
2022-08-29T15:51:24.412Z,4.13
2022-08-29T15:53:54.712Z,3.80
2022-08-29T15:56:21.884Z,4.20
2022-08-29T15:58:49.478Z,4.57
2022-08-29T16:01:17.243Z,4.10
2022-08-29T16:03:45.065Z,4.18
2022-08-29T16:06:12.359Z,4.35
2022-08-29T16:08:39.527Z,4.45
2022-08-29T16:11:13.463Z,4.07
2022-08-29T16:13:40.583Z,4.55
2022-08-29T16:16:10.243Z,3.78
2022-08-29T16:18:37.485Z,4.13
2022-08-29T16:21:04.809Z,3.97
2022-08-29T16:23:32.015Z,3.72
2022-08-29T16:25:59.175Z,4.38
2022-08-29T16:28:28.743Z,3.95
2022-08-29T16:30:55.918Z,4.28
2022-08-29T16:33:23.208Z,4.10
2022-08-29T16:35:50.382Z,4.65
2022-08-29T16:38:17.863Z,4.07
2022-08-29T16:40:45.584Z,4.40
2022-08-29T16:43:12.815Z,4.25
2022-08-29T16:45:40.154Z,3.63
2022-08-29T16:48:14.850Z,4.03
2022-08-29T16:50:44.998Z,4.03
2022-08-29T16:53:12.109Z,3.88
2022-08-29T16:55:39.249Z,4.10
2022-08-29T16:58:24.921Z,3.97
2022-08-29T17:00:52.873Z,4.22
2022-08-29T17:03:20.410Z,4.25
2022-08-29T17:05:49.332Z,4.30
2022-08-29T17:08:16.994Z,4.25
2022-08-29T17:10:44.218Z,4.03
2022-08-29T17:13:11.378Z,4.07
2022-08-29T17:15:38.657Z,4.20
2022-08-29T17:18:05.871Z,4.25
2022-08-29T17:20:37.321Z,4.53
2022-08-29T17:23:04.929Z,4.23
2022-08-29T17:25:37.254Z,4.00
2022-08-29T17:28:17.706Z,4.18
2022-08-29T17:30:45.549Z,4.03
2022-08-29T17:33:12.735Z,4.07
2022-08-29T17:35:39.889Z,4.40
2022-08-29T17:38:07.397Z,3.90
2022-08-29T17:40:36.052Z,4.88
2022-08-29T17:43:04.258Z,4.20
2022-08-29T17:45:31.419Z,3.75
2022-08-29T17:47:58.910Z,4.20
2022-08-29T17:50:26.255Z,4.20
2022-08-29T17:52:54.074Z,4.53
2022-08-29T17:55:21.507Z,4.25
2022-08-29T17:57:48.747Z,4.20
2022-08-29T18:00:16.070Z,4.00
2022-08-29T18:02:43.476Z,4.28
2022-08-29T18:05:12.571Z,4.05
2022-08-29T18:07:49.079Z,4.32
2022-08-29T18:10:18.546Z,4.68
2022-08-29T18:12:45.826Z,4.50
2022-08-29T18:15:13.540Z,4.15
2022-08-29T18:17:41.086Z,4.13
2022-08-29T18:20:09.743Z,4.50
2022-08-29T18:22:37.145Z,4.13
2022-08-29T18:25:05.254Z,4.45
2022-08-29T18:27:32.438Z,4.80
2022-08-29T18:30:01.935Z,4.10
2022-08-29T18:32:34.704Z,4.60
2022-08-29T18:35:05.482Z,4.45
2022-08-29T18:37:32.737Z,4.30
2022-08-29T18:40:00.237Z,4.05
2022-08-29T18:42:39.796Z,4.57
2022-08-29T18:45:08.933Z,4.50
2022-08-29T18:47:36.099Z,4.30
2022-08-29T18:50:24.962Z,4.80
2022-08-29T18:52:52.484Z,4.78
2022-08-29T18:55:20.032Z,4.53
2022-08-29T18:57:48.209Z,4.50
2022-08-29T19:00:16.154Z,5.13
2022-08-29T19:02:43.551Z,4.93
2022-08-29T19:05:11.223Z,4.70
2022-08-29T19:07:38.622Z,4.93
2022-08-29T19:10:06.496Z,4.53
2022-08-29T19:12:33.766Z,4.95
2022-08-29T19:15:00.987Z,4.60
2022-08-29T19:17:28.154Z,4.15
2022-08-29T19:20:14.105Z,5.10
2022-08-29T19:22:41.470Z,4.50
2022-08-29T19:25:09.341Z,4.28
2022-08-29T19:27:43.790Z,4.05
2022-08-29T19:30:12.185Z,4.40
2022-08-29T19:32:39.357Z,4.63
2022-08-29T19:35:07.166Z,4.25
2022-08-29T19:37:34.366Z,4.03
2022-08-29T19:40:02.467Z,4.15
2022-08-29T19:42:30.063Z,5.20
2022-08-29T19:44:57.227Z,4.15
2022-08-29T19:47:24.566Z,4.35
2022-08-29T19:49:52.343Z,4.28
2022-08-29T19:52:19.483Z,4.45
2022-08-29T19:54:46.622Z,4.13
2022-08-29T19:57:14.761Z,4.57
2022-08-29T19:59:43.545Z,3.97
2022-08-29T20:02:11.169Z,4.30
2022-08-29T20:04:38.635Z,4.20
2022-08-29T20:07:06.037Z,3.92
2022-08-29T20:09:34.907Z,3.95
2022-08-29T20:12:02.424Z,3.67
2022-08-29T20:14:29.718Z,4.25
2022-08-29T20:16:57.326Z,4.30
2022-08-29T20:19:26.241Z,3.85
2022-08-29T20:21:53.421Z,3.63
2022-08-29T20:24:20.805Z,3.95
2022-08-29T20:26:49.589Z,3.53
2022-08-29T20:29:17.389Z,3.83
2022-08-29T20:31:45.423Z,3.80
2022-08-29T20:34:12.975Z,3.58
2022-08-29T20:36:59.027Z,3.90
2022-08-29T20:39:26.197Z,3.92
2022-08-29T20:41:57.745Z,4.15
2022-08-29T20:44:28.197Z,4.10
2022-08-29T20:46:58.804Z,4.35
2022-08-29T20:49:27.185Z,3.58
2022-08-29T20:51:54.402Z,4.10
2022-08-29T20:54:24.482Z,3.72
2022-08-29T20:56:52.202Z,3.50
2022-08-29T20:59:20.332Z,3.85
2022-08-29T21:01:49.620Z,3.90
2022-08-29T21:04:36.029Z,4.20
2022-08-29T21:07:07.993Z,4.18
2022-08-29T21:09:41.184Z,3.88
2022-08-29T21:12:08.627Z,4.00
2022-08-29T21:14:35.911Z,4.10
2022-08-29T21:17:04.765Z,3.72
2022-08-29T21:19:32.145Z,4.13
2022-08-29T21:21:59.948Z,3.75
2022-08-29T21:24:27.576Z,4.22
2022-08-29T21:26:54.702Z,4.40
2022-08-29T21:29:22.590Z,4.13
2022-08-29T21:31:50.679Z,4.15
2022-08-29T21:34:18.277Z,3.83
2022-08-29T21:36:45.674Z,3.70
2022-08-29T21:39:13.360Z,4.05
2022-08-29T21:41:47.502Z,3.60
2022-08-29T21:44:15.540Z,4.15
2022-08-29T21:46:44.581Z,3.90
2022-08-29T21:49:13.384Z,3.70
2022-08-29T21:51:40.564Z,3.65
2022-08-29T21:54:12.722Z,3.58
2022-08-29T21:56:40.751Z,4.05
2022-08-29T21:59:08.300Z,3.88
2022-08-29T22:01:38.885Z,3.60
2022-08-29T22:04:08.059Z,3.78
2022-08-29T22:06:35.839Z,4.00
2022-08-29T22:09:03.038Z,4.30
2022-08-29T22:11:37.406Z,3.75
2022-08-29T22:14:06.215Z,3.97
2022-08-29T22:16:33.684Z,4.00
2022-08-29T22:19:10.505Z,4.10
2022-08-29T22:21:39.751Z,4.20
2022-08-29T22:24:07.785Z,4.00
2022-08-29T22:26:35.571Z,4.20
2022-08-29T22:29:02.744Z,3.88
2022-08-29T22:31:31.817Z,4.50
2022-08-29T22:33:59.774Z,4.45
2022-08-29T22:36:26.907Z,4.15
2022-08-29T22:38:56.494Z,4.22
2022-08-29T22:41:24.317Z,4.30
2022-08-29T22:44:16.606Z,3.75
2022-08-29T22:46:43.041Z,4.07
2022-08-29T22:49:10.272Z,4.00
2022-08-29T22:51:37.574Z,3.65
2022-08-29T22:54:23.581Z,3.90
2022-08-29T22:56:52.608Z,4.05
2022-08-29T22:59:21.923Z,4.40
2022-08-29T23:01:49.239Z,4.25
2022-08-29T23:04:16.446Z,4.00
2022-08-29T23:06:43.588Z,4.00
2022-08-29T23:09:10.746Z,3.97
2022-08-29T23:11:38.284Z,4.28
2022-08-29T23:14:05.702Z,3.97
2022-08-29T23:16:33.561Z,3.80
2022-08-29T23:19:01.228Z,3.95
2022-08-29T23:21:28.822Z,4.05
2022-08-29T23:23:56.371Z,3.75
2022-08-29T23:26:23.811Z,3.95
2022-08-29T23:28:51.116Z,4.10
2022-08-29T23:31:19.097Z,4.43
2022-08-29T23:33:46.778Z,3.92
2022-08-29T23:36:13.903Z,4.10
2022-08-29T23:38:41.239Z,4.18
2022-08-29T23:41:08.370Z,4.07
2022-08-29T23:43:36.964Z,3.65
2022-08-29T23:46:04.617Z,3.83
2022-08-29T23:48:32.360Z,3.72
2022-08-29T23:50:59.819Z,4.20
2022-08-29T23:53:27.367Z,3.90
2022-08-29T23:55:54.527Z,4.25
2022-08-29T23:58:21.772Z,3.95
